Time;durP1;ratioP1;P1;durP2;ratioP2;P2;SDS_P1;SDS_P2;PMS_P1;PMS_P2;Temp;Humidity;BMP_temperature;BMP_pressure;BME280_temperature;BME280_humidity;BME280_pressure;Samples;Min_cycle;Max_cycle;Signal;HPM_P1;HPM_P2
2021/04/24 00:00:25;;;;;;;11.73;5.82;;;3.80;99.90;;;;;;5016330;28;20385;-78
2021/04/24 00:02:52;;;;;;;10.77;6.15;;;3.70;99.90;;;;;;5050725;28;20057;-78
2021/04/24 00:05:30;;;;;;;9.90;5.65;;;3.70;99.90;;;;;;5050444;28;20037;-78
2021/04/24 00:08:00;;;;;;;12.95;5.15;;;3.70;99.90;;;;;;5039694;28;20403;-79
2021/04/24 00:10:28;;;;;;;10.43;5.93;;;3.60;99.90;;;;;;5053543;28;20033;-78
2021/04/24 00:12:54;;;;;;;12.40;5.75;;;3.60;99.90;;;;;;5041357;28;20140;-78
2021/04/24 00:15:20;;;;;;;15.40;6.13;;;3.60;99.90;;;;;;5051319;28;20476;-78
2021/04/24 00:17:47;;;;;;;11.50;5.47;;;3.60;99.90;;;;;;5053372;28;20036;-78
2021/04/24 00:20:15;;;;;;;9.82;5.28;;;3.60;99.90;;;;;;5055129;28;20114;-78
2021/04/24 00:22:42;;;;;;;11.48;5.47;;;3.60;99.90;;;;;;5053603;28;20037;-77
2021/04/24 00:25:09;;;;;;;12.57;5.40;;;3.50;99.90;;;;;;5034831;28;20470;-77
2021/04/24 00:27:35;;;;;;;9.23;5.32;;;3.50;99.90;;;;;;5052798;28;20033;-77
2021/04/24 00:30:01;;;;;;;16.98;6.68;;;3.50;99.90;;;;;;5034517;28;20041;-78
2021/04/24 00:32:26;;;;;;;12.93;6.40;;;3.60;99.90;;;;;;5034009;28;20064;-78
2021/04/24 00:34:52;;;;;;;11.98;6.20;;;3.50;99.90;;;;;;5053162;28;20052;-78
2021/04/24 00:37:18;;;;;;;11.55;6.13;;;3.70;99.90;;;;;;5036169;28;20060;-78
2021/04/24 00:39:45;;;;;;;12.40;5.50;;;3.60;99.90;;;;;;5067872;28;20060;-78
2021/04/24 00:42:11;;;;;;;10.30;5.82;;;3.60;99.90;;;;;;5035751;28;20033;-78
2021/04/24 00:44:47;;;;;;;12.05;6.22;;;3.70;99.90;;;;;;5046702;28;20060;-78
2021/04/24 00:47:13;;;;;;;14.68;5.88;;;3.60;99.90;;;;;;5053945;28;20431;-78
2021/04/24 00:49:40;;;;;;;15.18;6.15;;;3.60;99.90;;;;;;5053459;28;20474;-77
2021/04/24 00:52:06;;;;;;;11.88;6.68;;;3.60;99.90;;;;;;5053541;28;20307;-78
2021/04/24 00:54:33;;;;;;;15.80;6.43;;;3.50;99.90;;;;;;5052128;28;20044;-78
2021/04/24 00:57:02;;;;;;;11.73;6.10;;;3.50;99.90;;;;;;5035442;28;20433;-78
2021/04/24 00:59:30;;;;;;;17.42;6.07;;;3.70;99.90;;;;;;5051483;28;20100;-78
2021/04/24 01:01:56;;;;;;;12.38;6.63;;;3.50;99.90;;;;;;5043179;28;20035;-78
2021/04/24 01:04:22;;;;;;;10.55;5.78;;;3.50;99.90;;;;;;5051696;28;20037;-78
2021/04/24 01:06:49;;;;;;;11.70;5.80;;;3.60;99.90;;;;;;5021468;28;20071;-78
2021/04/24 01:09:15;;;;;;;13.23;6.30;;;3.60;99.90;;;;;;5050274;28;20048;-78
2021/04/24 01:11:41;;;;;;;15.82;6.28;;;3.60;99.90;;;;;;5052573;28;20128;-78
2021/04/24 01:14:07;;;;;;;11.07;5.93;;;3.60;99.90;;;;;;5051323;28;20048;-77
2021/04/24 01:16:33;;;;;;;13.60;7.03;;;4.00;99.90;;;;;;5044771;28;20041;-77
2021/04/24 01:18:59;;;;;;;17.95;7.07;;;3.60;99.90;;;;;;5049939;28;20103;-77
2021/04/24 01:21:26;;;;;;;;;;;3.60;99.90;;;;;;5067713;28;20543;-77
2021/04/24 01:23:53;;;;;;;11.10;6.20;;;3.60;99.90;;;;;;5071681;28;19943;-76
2021/04/24 01:26:18;;;;;;;13.18;6.55;;;3.60;99.90;;;;;;5072157;28;20091;-77
2021/04/24 01:28:45;;;;;;;12.57;6.50;;;3.60;99.90;;;;;;5072254;28;20552;-77
2021/04/24 01:31:13;;;;;;;14.98;6.90;;;3.60;99.90;;;;;;5072862;28;20036;-78
2021/04/24 01:33:39;;;;;;;14.52;6.75;;;3.60;99.90;;;;;;5072892;28;20043;-78
2021/04/24 01:36:05;;;;;;;18.35;7.90;;;4.20;99.90;;;;;;5071913;28;20033;-78
2021/04/24 01:38:32;;;;;;;17.00;6.43;;;3.60;99.90;;;;;;5072253;28;20040;-78
2021/04/24 01:40:58;;;;;;;17.30;7.38;;;3.60;99.90;;;;;;5070765;28;20047;-78
2021/04/24 01:43:24;;;;;;;;;;;3.60;99.90;;;;;;5074068;28;20493;-78
2021/04/24 01:45:50;;;;;;;10.98;6.32;;;3.60;99.90;;;;;;5085144;28;19947;-79
2021/04/24 01:48:16;;;;;;;12.00;6.18;;;3.50;99.90;;;;;;5071831;28;20124;-78
2021/04/24 01:50:44;;;;;;;13.43;7.10;;;3.50;99.90;;;;;;5053992;28;20060;-78
2021/04/24 01:53:19;;;;;;;17.70;6.68;;;3.50;99.90;;;;;;5071644;28;20036;-77
2021/04/24 01:55:46;;;;;;;16.95;7.07;;;3.50;99.90;;;;;;5070802;28;20037;-77
2021/04/24 01:58:18;;;;;;;13.80;7.35;;;3.50;99.90;;;;;;5054370;28;20040;-78
2021/04/24 02:01:15;;;;;;;21.05;8.02;;;3.50;99.90;;;;;;5071343;28;20419;-78
2021/04/24 02:03:41;;;;;;;19.02;7.22;;;3.40;99.90;;;;;;5071090;28;20082;-78
2021/04/24 02:06:08;;;;;;;14.63;8.02;;;3.50;99.90;;;;;;5071798;28;20056;-78
2021/04/24 02:08:38;;;;;;;14.68;6.45;;;3.40;99.90;;;;;;5072022;28;20079;-78
2021/04/24 02:11:06;;;;;;;13.32;7.13;;;3.40;99.90;;;;;;5053463;28;20040;-77
2021/04/24 02:13:40;;;;;;;12.98;7.00;;;3.40;99.90;;;;;;5054357;28;20040;-77
2021/04/24 02:16:10;;;;;;;18.58;8.38;;;3.40;99.90;;;;;;5053296;28;20477;-77
2021/04/24 02:18:37;;;;;;;15.75;6.72;;;3.40;99.90;;;;;;5071822;28;20063;-77
2021/04/24 02:21:03;;;;;;;19.30;7.95;;;3.50;99.90;;;;;;5071064;28;20048;-77
2021/04/24 02:23:37;;;;;;;15.80;7.47;;;3.40;99.90;;;;;;5037492;28;20055;-77
2021/04/24 02:26:04;;;;;;;12.65;7.28;;;3.30;99.90;;;;;;5070186;28;20095;-77
2021/04/24 02:28:30;;;;;;;18.50;8.10;;;3.30;99.90;;;;;;5071796;28;20033;-77
2021/04/24 02:30:57;;;;;;;18.50;7.70;;;3.30;99.90;;;;;;5070714;28;20482;-77
2021/04/24 02:33:23;;;;;;;14.88;7.30;;;3.20;99.90;;;;;;5053971;28;20165;-77
2021/04/24 02:35:56;;;;;;;15.65;7.43;;;3.20;99.90;;;;;;5070604;28;20465;-77
2021/04/24 02:38:28;;;;;;;15.07;7.90;;;3.20;99.90;;;;;;5071083;28;20042;-77
2021/04/24 02:40:56;;;;;;;15.07;8.05;;;3.10;99.90;;;;;;5070245;28;20032;-77
2021/04/24 02:43:22;;;;;;;15.75;8.27;;;3.10;99.90;;;;;;5071594;28;20048;-77
2021/04/24 02:45:48;;;;;;;17.98;7.60;;;3.00;99.90;;;;;;5070851;28;20032;-78
2021/04/24 02:48:16;;;;;;;18.67;8.70;;;3.00;99.90;;;;;;5071172;28;20492;-78
2021/04/24 02:50:42;;;;;;;20.23;7.68;;;2.90;99.90;;;;;;5086633;28;20040;-77
2021/04/24 02:53:08;;;;;;;15.65;8.18;;;2.90;99.90;;;;;;5070305;28;20052;-77
2021/04/24 02:55:35;;;;;;;14.13;7.72;;;2.90;99.90;;;;;;5071302;28;20043;-78
2021/04/24 02:58:01;;;;;;;17.92;8.27;;;2.90;99.90;;;;;;5052622;28;20119;-77
2021/04/24 03:00:27;;;;;;;14.52;8.18;;;2.90;99.90;;;;;;5071435;28;20115;-77
2021/04/24 03:03:11;;;;;;;15.43;7.22;;;2.90;99.90;;;;;;5052621;28;20036;-77
2021/04/24 03:05:38;;;;;;;21.77;7.85;;;2.80;99.90;;;;;;5070899;28;20112;-78
2021/04/24 03:08:05;;;;;;;18.85;8.25;;;2.80;99.90;;;;;;5052255;28;20111;-77
2021/04/24 03:10:31;;;;;;;16.85;7.22;;;2.70;99.90;;;;;;5086185;28;20134;-77
2021/04/24 03:12:57;;;;;;;;;;;2.70;99.90;;;;;;5071511;28;20048;-77
2021/04/24 03:15:25;;;;;;;;;;;2.80;99.90;;;;;;5071370;28;19963;-78
2021/04/24 03:17:52;;;;;;;18.25;8.75;;;2.70;99.90;;;;;;5070873;28;19920;-77
2021/04/24 03:20:19;;;;;;;16.85;7.55;;;2.70;99.90;;;;;;5051301;28;20056;-78
2021/04/24 03:22:46;;;;;;;17.80;8.35;;;2.70;99.90;;;;;;5070198;28;20078;-78
2021/04/24 03:25:12;;;;;;;;;;;2.60;99.90;;;;;;5070082;28;20033;-77
2021/04/24 03:27:38;;;;;;;21.63;8.60;;;2.60;99.90;;;;;;5052914;28;20420;-76
2021/04/24 03:30:05;;;;;;;;;;;2.60;99.90;;;;;;5070388;28;20032;-76
2021/04/24 03:32:31;;;;;;;18.13;8.55;;;2.60;99.90;;;;;;5070554;28;20050;-78
2021/04/24 03:34:57;;;;;;;17.58;8.77;;;2.50;99.90;;;;;;5069689;28;20147;-78
2021/04/24 03:37:22;;;;;;;18.77;7.75;;;2.50;99.90;;;;;;5052029;28;20041;-78
2021/04/24 03:39:48;;;;;;;17.75;8.23;;;2.60;99.90;;;;;;5068319;28;20048;-77
2021/04/24 03:42:14;;;;;;;19.30;7.93;;;2.50;99.90;;;;;;5071026;28;20059;-77
2021/04/24 03:44:41;;;;;;;21.58;9.90;;;2.50;99.90;;;;;;5075103;28;20131;-77
2021/04/24 03:47:08;;;;;;;19.30;8.13;;;2.50;99.90;;;;;;5074087;28;20382;-77
2021/04/24 03:49:34;;;;;;;18.75;8.45;;;2.50;99.90;;;;;;5056578;28;20047;-77
2021/04/24 03:52:03;;;;;;;20.27;7.97;;;2.60;99.90;;;;;;5053030;28;20087;-77
2021/04/24 03:54:30;;;;;;;14.27;7.95;;;2.50;99.90;;;;;;5036681;28;20052;-78
2021/04/24 03:56:57;;;;;;;14.70;7.15;;;2.50;99.90;;;;;;5090022;28;20585;-78
2021/04/24 03:59:23;;;;;;;18.13;9.88;;;2.50;99.90;;;;;;5073978;28;20574;-77
2021/04/24 04:01:49;;;;;;;18.60;8.80;;;2.50;99.90;;;;;;5073885;28;20501;-78
2021/04/24 04:04:15;;;;;;;15.80;7.93;;;2.50;99.90;;;;;;5056926;28;20037;-78
2021/04/24 04:06:41;;;;;;;17.30;8.10;;;2.60;99.90;;;;;;5039607;28;20029;-78
2021/04/24 04:09:07;;;;;;;16.80;7.35;;;2.60;99.90;;;;;;5055676;28;20037;-77
2021/04/24 04:11:32;;;;;;;14.02;7.20;;;2.60;99.90;;;;;;5052639;28;20060;-77
2021/04/24 04:13:58;;;;;;;16.23;8.25;;;2.70;99.90;;;;;;5069630;28;20091;-78
2021/04/24 04:16:24;;;;;;;17.88;7.93;;;2.70;99.90;;;;;;5074060;28;20485;-78
2021/04/24 04:18:52;;;;;;;15.70;7.93;;;2.70;99.90;;;;;;5073780;28;20040;-78
2021/04/24 04:21:19;;;;;;;18.00;7.65;;;2.70;99.90;;;;;;5061872;28;20471;-78
2021/04/24 04:23:44;;;;;;;18.20;7.20;;;2.70;99.90;;;;;;5054196;28;20044;-77
2021/04/24 04:26:10;;;;;;;15.02;7.68;;;2.70;99.90;;;;;;5053752;28;20386;-78
2021/04/24 04:28:36;;;;;;;16.00;8.05;;;2.70;99.90;;;;;;5054185;28;20079;-78
2021/04/24 04:31:03;;;;;;;14.02;7.03;;;2.80;99.90;;;;;;5015750;28;20386;-78
2021/04/24 04:33:29;;;;;;;17.45;7.38;;;2.70;99.90;;;;;;5049057;28;20507;-77
2021/04/24 04:35:55;;;;;;;15.73;8.63;;;2.80;99.90;;;;;;5033580;28;20055;-78
2021/04/24 04:38:21;;;;;;;17.63;7.63;;;2.80;99.90;;;;;;5045327;28;20034;-78
2021/04/24 04:40:47;;;;;;;16.30;7.40;;;2.80;99.90;;;;;;5054157;28;20488;-78
2021/04/24 04:43:14;;;;;;;16.15;7.45;;;2.80;99.90;;;;;;5048288;28;20391;-79
2021/04/24 04:45:41;;;;;;;15.13;8.10;;;2.80;99.90;;;;;;5054355;28;20040;-78
2021/04/24 04:48:07;;;;;;;15.07;7.40;;;3.00;99.90;;;;;;5052898;28;20132;-78
2021/04/24 04:50:36;;;;;;;14.32;6.47;;;2.90;99.90;;;;;;5032223;28;20120;-78
2021/04/24 04:53:02;;;;;;;14.05;7.38;;;3.00;99.90;;;;;;5051958;28;20044;-78
2021/04/24 04:55:28;;;;;;;16.52;7.93;;;3.00;99.90;;;;;;5052872;28;20390;-77
2021/04/24 04:57:55;;;;;;;14.00;7.22;;;3.00;99.90;;;;;;5053533;28;20481;-78
2021/04/24 05:00:23;;;;;;;16.33;7.22;;;3.10;99.90;;;;;;5053826;28;20398;-78
2021/04/24 05:02:49;;;;;;;14.85;7.13;;;3.20;99.90;;;;;;5053770;28;20045;-77
2021/04/24 05:05:15;;;;;;;;;;;3.30;99.90;;;;;;5036163;28;20457;-79
2021/04/24 05:07:42;;;;;;;16.73;7.33;;;3.30;99.90;;;;;;5047431;28;20047;-78
2021/04/24 05:10:09;;;;;;;13.18;6.97;;;3.30;99.90;;;;;;5053223;28;20041;-78
2021/04/24 05:12:35;;;;;;;13.77;6.55;;;3.40;99.90;;;;;;5047014;28;20390;-78
2021/04/24 05:15:01;;;;;;;14.55;7.25;;;3.70;99.90;;;;;;5053866;28;20052;-78
2021/04/24 05:17:27;;;;;;;13.60;6.97;;;3.50;99.90;;;;;;5046739;28;20040;-77
2021/04/24 05:19:52;;;;;;;14.43;6.88;;;3.50;99.90;;;;;;5053434;28;20523;-77
2021/04/24 05:22:18;;;;;;;14.18;7.38;;;3.70;99.90;;;;;;5089378;28;20343;-77
2021/04/24 05:24:44;;;;;;;20.52;8.50;;;3.80;99.90;;;;;;5072746;28;20115;-77
2021/04/24 05:27:10;;;;;;;12.35;7.07;;;3.90;99.90;;;;;;5054965;28;20052;-77
2021/04/24 05:29:37;;;;;;;15.95;7.85;;;4.00;99.90;;;;;;5052123;28;20041;-77
2021/04/24 05:32:04;;;;;;;15.40;7.20;;;4.10;99.90;;;;;;5048782;28;20044;-77
2021/04/24 05:34:30;;;;;;;14.98;7.57;;;4.30;99.90;;;;;;5072590;28;20126;-77
2021/04/24 05:36:56;;;;;;;;;;;4.40;99.90;;;;;;5052661;28;20160;-78
2021/04/24 05:39:22;;;;;;;15.85;6.97;;;4.50;99.90;;;;;;5089192;28;19974;-78
2021/04/24 05:41:48;;;;;;;16.95;7.65;;;4.50;99.90;;;;;;5074135;28;20123;-78
2021/04/24 05:44:14;;;;;;;14.52;5.82;;;4.60;99.90;;;;;;5086052;28;20032;-78
2021/04/24 05:46:40;;;;;;;13.85;6.45;;;4.70;99.90;;;;;;5073202;28;20049;-78
2021/04/24 05:49:06;;;;;;;11.98;6.43;;;4.80;99.90;;;;;;5072515;28;20040;-78
2021/04/24 05:51:35;;;;;;;15.18;6.65;;;4.80;99.90;;;;;;5056395;28;20044;-79
2021/04/24 05:54:01;;;;;;;13.43;5.95;;;4.90;99.90;;;;;;5065736;28;20039;-79
2021/04/24 05:56:27;;;;;;;12.25;6.28;;;5.00;99.90;;;;;;5073707;28;20040;-77
2021/04/24 05:58:52;;;;;;;10.13;5.53;;;5.10;99.90;;;;;;5071949;28;20090;-78
2021/04/24 06:01:19;;;;;;;13.93;6.45;;;5.20;99.90;;;;;;5072187;28;20064;-78
2021/04/24 06:03:45;;;;;;;14.23;5.97;;;5.20;99.90;;;;;;5070725;28;20037;-77
2021/04/24 06:06:11;;;;;;;11.98;5.28;;;5.60;99.90;;;;;;5071231;28;20037;-77
2021/04/24 06:08:37;;;;;;;17.23;5.65;;;5.30;99.90;;;;;;5054453;28;20040;-78
2021/04/24 06:11:03;;;;;;;13.52;5.53;;;5.40;99.90;;;;;;5073109;28;20379;-78
2021/04/24 06:13:29;;;;;;;;;;;5.50;99.90;;;;;;5054814;28;20040;-78
2021/04/24 06:15:55;;;;;;;14.48;5.68;;;5.60;99.90;;;;;;5036045;28;19916;-78
2021/04/24 06:18:21;;;;;;;;;;;5.60;99.90;;;;;;5067577;28;20120;-78
2021/04/24 06:20:47;;;;;;;12.15;5.00;;;5.80;99.90;;;;;;5071853;28;19923;-78
2021/04/24 06:23:14;;;;;;;14.60;5.55;;;5.80;99.90;;;;;;5052926;28;20378;-78
2021/04/24 06:25:40;;;;;;;11.35;5.50;;;6.00;99.90;;;;;;5072289;28;20040;-79
2021/04/24 06:28:06;;;;;;;;;;;6.20;99.90;;;;;;5072880;28;20028;-78
2021/04/24 06:30:32;;;;;;;18.20;6.05;;;6.40;99.90;;;;;;5088585;28;20023;-78
2021/04/24 06:32:57;;;;;;;11.05;4.93;;;6.40;99.90;;;;;;5072396;28;20056;-79
2021/04/24 06:35:25;;;;;;;9.35;5.07;;;6.60;99.90;;;;;;5051482;28;20127;-78
2021/04/24 06:37:52;;;;;;;8.98;4.75;;;6.70;99.90;;;;;;5062906;28;20055;-78
2021/04/24 06:40:19;;;;;;;9.98;4.85;;;6.80;99.90;;;;;;5053060;28;20289;-77
2021/04/24 06:42:46;;;;;;;15.32;5.00;;;6.90;99.90;;;;;;5072159;28;20036;-78
2021/04/24 06:45:14;;;;;;;10.13;4.38;;;7.10;99.90;;;;;;5070954;28;20064;-78
2021/04/24 06:47:42;;;;;;;12.90;5.13;;;7.20;99.90;;;;;;5072932;28;20063;-78
2021/04/24 06:50:10;;;;;;;12.40;4.55;;;7.30;99.90;;;;;;5082694;28;20037;-78
2021/04/24 06:52:37;;;;;;;8.82;3.97;;;7.40;99.90;;;;;;5071037;28;20510;-80
2021/04/24 06:55:04;;;;;;;9.15;5.35;;;7.60;99.90;;;;;;5045739;28;20136;-78
2021/04/24 06:57:30;;;;;;;13.57;5.80;;;7.80;99.90;;;;;;5081927;28;20052;-78
2021/04/24 06:59:58;;;;;;;7.15;4.00;;;8.10;99.90;;;;;;5086282;28;20059;-79
2021/04/24 07:02:24;;;;;;;8.13;4.00;;;8.40;99.90;;;;;;5071154;28;20068;-79
2021/04/24 07:04:50;;;;;;;10.80;5.00;;;8.40;99.90;;;;;;5070808;28;20029;-79
2021/04/24 07:07:16;;;;;;;12.23;3.90;;;8.40;99.90;;;;;;5053269;28;20033;-78
2021/04/24 07:09:42;;;;;;;9.35;4.18;;;8.30;99.90;;;;;;5068666;28;20729;-79
2021/04/24 07:12:08;;;;;;;14.50;4.97;;;8.30;99.90;;;;;;5052862;28;20045;-77
2021/04/24 07:14:34;;;;;;;;;;;8.20;99.90;;;;;;5071201;28;20115;-78
2021/04/24 07:17:00;;;;;;;13.13;4.10;;;8.40;99.90;;;;;;5035103;28;20011;-78
2021/04/24 07:19:26;;;;;;;;;;;8.60;99.90;;;;;;5053175;28;20052;-76
2021/04/24 07:21:52;;;;;;;13.20;4.35;;;8.70;99.90;;;;;;5055624;28;20018;-77
2021/04/24 07:24:18;;;;;;;14.98;4.53;;;8.70;99.90;;;;;;5072422;28;20172;-79
2021/04/24 07:26:43;;;;;;;22.42;6.22;;;8.60;99.90;;;;;;5037173;28;20478;-79
2021/04/24 07:29:09;;;;;;;13.27;3.92;;;8.40;99.90;;;;;;5070086;28;20478;-77
2021/04/24 07:31:35;;;;;;;9.02;3.67;;;8.20;99.90;;;;;;5069194;28;20029;-79
2021/04/24 07:34:02;;;;;;;11.13;3.83;;;8.10;99.90;;;;;;5070480;28;20025;-78
2021/04/24 07:36:29;;;;;;;10.93;4.00;;;8.20;99.90;;;;;;5070086;28;20107;-79
2021/04/24 07:38:55;;;;;;;9.60;4.35;;;8.30;99.90;;;;;;5035973;28;20048;-79
2021/04/24 07:41:23;;;;;;;11.23;4.40;;;8.40;99.90;;;;;;5048333;28;20098;-77
2021/04/24 07:43:49;;;;;;;12.07;5.45;;;8.50;99.90;;;;;;5037261;28;20059;-78
2021/04/24 07:46:15;;;;;;;8.98;4.63;;;8.70;99.70;;;;;;5035452;28;20131;-79
2021/04/24 07:48:41;;;;;;;12.80;4.07;;;8.80;99.60;;;;;;5069808;28;20037;-78
2021/04/24 07:51:07;;;;;;;9.57;4.47;;;9.00;99.60;;;;;;5051332;28;20393;-79
2021/04/24 07:53:33;;;;;;;15.13;4.75;;;9.30;99.10;;;;;;5051582;28;20040;-80
2021/04/24 07:55:59;;;;;;;13.65;4.40;;;9.40;97.90;;;;;;5069926;28;20044;-80
2021/04/24 07:58:25;;;;;;;9.80;3.97;;;9.50;96.50;;;;;;5070002;28;20067;-81
2021/04/24 08:00:50;;;;;;;11.45;4.65;;;9.50;95.70;;;;;;5035547;28;20044;-79
2021/04/24 08:03:16;;;;;;;12.93;4.38;;;9.20;96.50;;;;;;5069213;28;20463;-79
2021/04/24 08:05:42;;;;;;;58.67;12.48;;;9.00;96.50;;;;;;5084477;28;20036;-79
2021/04/24 08:08:08;;;;;;;23.65;6.13;;;8.90;97.10;;;;;;5046197;28;20041;-78
2021/04/24 08:10:34;;;;;;;11.18;4.28;;;9.00;97.00;;;;;;5084949;28;20044;-78
2021/04/24 08:13:02;;;;;;;10.98;4.13;;;9.00;97.00;;;;;;5070405;28;20032;-78
2021/04/24 08:15:29;;;;;;;14.50;4.88;;;8.80;97.40;;;;;;5069683;28;20049;-79
2021/04/24 08:17:56;;;;;;;11.52;4.55;;;8.80;97.80;;;;;;5069814;28;20044;-78
2021/04/24 08:20:22;;;;;;;10.20;4.20;;;8.80;97.80;;;;;;5069008;28;20037;-77
2021/04/24 08:22:48;;;;;;;9.15;4.05;;;8.90;98.20;;;;;;5051429;28;20429;-77
2021/04/24 08:25:15;;;;;;;9.27;4.68;;;9.00;98.20;;;;;;5047776;28;20064;-79
2021/04/24 08:27:41;;;;;;;9.57;3.85;;;9.00;97.90;;;;;;5049483;28;20467;-79
2021/04/24 08:30:11;;;;;;;15.38;4.85;;;8.90;98.20;;;;;;5059244;28;20108;-79
2021/04/24 08:32:38;;;;;;;14.15;4.63;;;9.00;98.30;;;;;;5054485;28;20033;-79
2021/04/24 08:35:05;;;;;;;11.18;4.53;;;9.00;98.80;;;;;;5054948;28;20043;-79
2021/04/24 08:37:31;;;;;;;10.55;3.92;;;8.80;98.20;;;;;;5062107;28;20041;-77
2021/04/24 08:40:00;;;;;;;12.75;4.45;;;9.30;98.10;;;;;;5051190;28;20029;-79
2021/04/24 08:42:27;;;;;;;11.95;4.00;;;9.30;97.80;;;;;;5010836;28;20034;-79
2021/04/24 08:44:53;;;;;;;11.57;3.70;;;9.40;97.60;;;;;;5062106;28;20032;-79
2021/04/24 08:47:23;;;;;;;12.38;3.88;;;9.40;97.50;;;;;;5035541;28;20033;-79
2021/04/24 08:49:51;;;;;;;11.07;4.00;;;9.50;97.00;;;;;;5068859;28;20049;-79
2021/04/24 08:52:21;;;;;;;12.25;3.88;;;9.70;96.50;;;;;;5035380;28;20025;-78
2021/04/24 08:54:47;;;;;;;11.07;3.83;;;9.80;96.40;;;;;;5052748;28;20482;-78
2021/04/24 08:57:14;;;;;;;16.25;4.03;;;9.90;95.00;;;;;;5035008;28;20044;-79
2021/04/24 08:59:39;;;;;;;;;;;9.90;94.20;;;;;;5053614;28;20458;-79
2021/04/24 09:02:05;;;;;;;11.40;3.78;;;9.90;94.20;;;;;;5053641;28;19924;-80
2021/04/24 09:04:32;;;;;;;12.68;3.65;;;10.00;94.80;;;;;;5051393;28;20059;-78
2021/04/24 09:06:58;;;;;;;8.45;3.70;;;10.00;92.80;;;;;;5053516;28;20090;-79
2021/04/24 09:09:27;;;;;;;8.10;3.28;;;10.00;92.20;;;;;;5052171;28;20394;-80
2021/04/24 09:12:01;;;;;;;8.20;3.15;;;10.00;92.30;;;;;;5035553;28;20033;-79
2021/04/24 09:14:27;;;;;;;7.28;2.55;;;10.00;92.30;;;;;;5052708;28;20124;-79
2021/04/24 09:16:53;;;;;;;;;;;10.00;91.50;;;;;;5053462;28;20098;-78
2021/04/24 09:19:33;;;;;;;9.27;3.35;;;10.10;91.10;;;;;;5052634;28;19924;-79
2021/04/24 09:22:19;;;;;;;15.57;3.90;;;10.00;91.40;;;;;;5042264;28;20060;-79
2021/04/24 09:24:51;;;;;;;12.15;3.72;;;10.20;91.30;;;;;;5072600;28;20041;-78
2021/04/24 09:27:17;;;;;;;7.05;2.97;;;10.20;90.70;;;;;;5073095;28;20125;-79
2021/04/24 09:29:43;;;;;;;10.02;3.13;;;10.30;89.80;;;;;;5072781;28;20037;-78
2021/04/24 09:32:22;;;;;;;7.35;3.30;;;10.30;85.20;;;;;;5072607;28;20132;-78
2021/04/24 09:34:49;;;;;;;6.10;2.72;;;10.40;83.60;;;;;;5072745;28;20446;-80
2021/04/24 09:37:18;;;;;;;9.35;3.53;;;10.40;83.50;;;;;;5054781;28;20514;-78
2021/04/24 09:39:54;;;;;;;11.88;2.55;;;10.50;82.40;;;;;;5071439;28;20048;-78
2021/04/24 09:42:39;;;;;;;6.00;2.55;;;10.60;80.10;;;;;;5072502;28;20450;-78
2021/04/24 09:45:26;;;;;;;6.15;2.45;;;10.50;77.90;;;;;;5071864;28;20382;-81
2021/04/24 09:47:53;;;;;;;6.55;2.53;;;10.50;74.30;;;;;;5072452;28;20529;-79
2021/04/24 09:50:23;;;;;;;7.05;2.70;;;10.50;76.40;;;;;;5054016;28;20055;-80
2021/04/24 09:52:49;;;;;;;6.85;2.47;;;10.60;74.70;;;;;;5073011;28;20036;-77
2021/04/24 09:55:16;;;;;;;;;;;10.60;74.40;;;;;;5070692;28;20036;-79
2021/04/24 09:57:42;;;;;;;9.60;2.50;;;10.70;72.60;;;;;;5054294;28;20278;-79
2021/04/24 10:00:14;;;;;;;3.88;2.10;;;10.80;73.70;;;;;;5054448;28;20044;-79
2021/04/24 10:02:42;;;;;;;7.53;2.10;;;10.90;69.50;;;;;;5072874;28;20108;-79
2021/04/24 10:05:14;;;;;;;13.25;3.28;;;10.80;67.60;;;;;;5047887;28;20116;-78
2021/04/24 10:07:45;;;;;;;5.90;2.50;;;10.80;66.90;;;;;;5056180;28;20059;-81
2021/04/24 10:10:16;;;;;;;4.78;2.38;;;10.80;68.20;;;;;;5070859;28;20047;-78
2021/04/24 10:13:14;;;;;;;6.43;2.35;;;10.70;68.70;;;;;;5077622;28;20032;-77
2021/04/24 10:15:42;;;;;;;9.18;2.55;;;10.80;67.50;;;;;;5020890;28;20136;-78
2021/04/24 10:18:11;;;;;;;8.35;2.55;;;10.80;68.80;;;;;;5070899;28;20041;-79
2021/04/24 10:20:40;;;;;;;6.53;2.95;;;10.80;68.40;;;;;;5074537;28;20116;-77
2021/04/24 10:23:07;;;;;;;7.72;2.83;;;10.80;68.80;;;;;;5045239;28;20048;-80
2021/04/24 10:25:35;;;;;;;9.02;3.13;;;10.80;70.40;;;;;;5071664;28;20032;-78
2021/04/24 10:28:01;;;;;;;17.05;4.47;;;10.80;72.10;;;;;;5053712;28;20037;-79
2021/04/24 10:30:27;;;;;;;;;;;10.80;71.30;;;;;;5071688;28;20040;-76
2021/04/24 10:32:54;;;;;;;15.30;4.13;;;10.70;71.80;;;;;;5071166;28;19974;-78
2021/04/24 10:35:20;;;;;;;7.40;2.85;;;10.70;70.40;;;;;;5052977;28;20040;-79
2021/04/24 10:37:48;;;;;;;9.07;3.13;;;10.80;71.10;;;;;;5071546;28;20086;-78
2021/04/24 10:40:15;;;;;;;8.73;2.67;;;10.90;71.30;;;;;;5069683;28;20036;-79
2021/04/24 10:42:44;;;;;;;8.10;3.17;;;10.90;70.90;;;;;;5074097;28;20485;-79
2021/04/24 10:45:10;;;;;;;7.45;2.90;;;10.80;71.20;;;;;;5071362;28;20049;-79
2021/04/24 10:47:41;;;;;;;6.97;2.67;;;10.80;72.20;;;;;;5047046;28;20048;-78
2021/04/24 10:50:16;;;;;;;6.25;2.58;;;10.90;71.50;;;;;;5056883;28;20039;-78
2021/04/24 10:52:44;;;;;;;11.30;2.95;;;11.10;69.60;;;;;;5070507;28;20038;-76
2021/04/24 10:55:13;;;;;;;7.80;2.95;;;11.10;68.60;;;;;;5069195;28;20084;-77
2021/04/24 10:57:42;;;;;;;9.43;3.58;;;11.10;67.80;;;;;;5065920;28;20375;-78
2021/04/24 11:00:12;;;;;;;7.03;3.05;;;11.10;69.50;;;;;;5069970;28;20090;-76
2021/04/24 11:02:58;;;;;;;7.22;2.85;;;11.10;70.70;;;;;;5071163;28;20040;-75
2021/04/24 11:05:53;;;;;;;9.60;2.55;;;11.10;66.80;;;;;;5053817;28;20036;-78
2021/04/24 11:08:21;;;;;;;8.88;2.95;;;10.90;67.80;;;;;;5067435;28;20052;-75
2021/04/24 11:11:06;;;;;;;7.85;2.90;;;10.90;68.30;;;;;;5053343;28;20043;-78
2021/04/24 11:13:36;;;;;;;6.20;2.90;;;10.90;67.90;;;;;;5052201;28;20047;-79
2021/04/24 11:16:03;;;;;;;8.65;2.78;;;10.90;68.60;;;;;;5086890;28;20033;-78
2021/04/24 11:18:34;;;;;;;5.80;2.50;;;10.90;68.30;;;;;;5051268;28;20038;-78
2021/04/24 11:21:08;;;;;;;5.82;2.70;;;11.00;66.50;;;;;;5051936;28;20134;-79
2021/04/24 11:23:44;;;;;;;7.13;2.40;;;11.00;67.70;;;;;;5061190;28;20040;-78
2021/04/24 11:26:33;;;;;;;10.13;3.03;;;11.00;68.00;;;;;;5051766;28;20039;-78
2021/04/24 11:29:09;;;;;;;10.75;2.88;;;11.20;66.40;;;;;;5062783;28;20048;-79
2021/04/24 11:31:49;;;;;;;8.00;3.13;;;11.30;66.30;;;;;;5061771;28;20064;-80
2021/04/24 11:34:47;;;;;;;4.43;2.25;;;11.30;65.10;;;;;;5047677;28;20033;-78
2021/04/24 11:40:03;;;;;;;5.70;2.65;;;11.40;64.90;;;;;;5069851;28;20043;-81
2021/04/24 11:42:31;;;;;;;7.50;3.05;;;11.50;63.80;;;;;;5080768;28;20032;-79
2021/04/24 11:44:57;;;;;;;8.13;2.75;;;11.50;62.90;;;;;;5078021;28;20107;-80
2021/04/24 11:47:51;;;;;;;6.28;2.47;;;11.40;62.40;;;;;;5069304;28;20078;-80
2021/04/24 11:50:19;;;;;;;5.43;2.58;;;11.30;63.30;;;;;;5086280;28;20044;-80
2021/04/24 11:52:54;;;;;;;8.73;2.58;;;11.20;62.50;;;;;;5052786;28;20056;-79
2021/04/24 11:55:21;;;;;;;9.48;3.00;;;11.20;62.70;;;;;;5070116;28;20555;-80
2021/04/24 11:57:47;;;;;;;6.88;2.33;;;11.30;64.40;;;;;;5052848;28;20045;-80
2021/04/24 12:00:26;;;;;;;8.60;2.70;;;11.40;64.70;;;;;;5070544;28;20055;-80
2021/04/24 12:02:52;;;;;;;6.30;2.30;;;11.50;64.70;;;;;;5052023;28;20499;-80
2021/04/24 12:05:18;;;;;;;4.45;2.00;;;11.70;63.90;;;;;;5076716;28;20043;-79
2021/04/24 12:07:47;;;;;;;6.35;2.45;;;11.70;63.50;;;;;;5054708;28;20126;-80
2021/04/24 12:10:13;;;;;;;6.43;2.70;;;11.60;63.00;;;;;;5055540;28;20047;-79
2021/04/24 12:12:45;;;;;;;8.40;2.60;;;11.60;62.90;;;;;;5056145;28;20028;-79
2021/04/24 12:15:13;;;;;;;5.93;2.40;;;11.60;60.70;;;;;;5074269;28;20067;-79
2021/04/24 12:18:00;;;;;;;6.05;2.22;;;11.40;59.40;;;;;;5073832;28;20052;-80
2021/04/24 12:20:35;;;;;;;6.72;2.33;;;11.20;60.80;;;;;;5072479;28;20059;-79
2021/04/24 12:23:04;;;;;;;5.03;2.08;;;11.30;59.90;;;;;;5073397;28;20068;-80
2021/04/24 12:25:32;;;;;;;5.53;2.60;;;11.30;60.70;;;;;;5088318;28;20111;-80
2021/04/24 12:28:00;;;;;;;10.00;2.53;;;11.30;61.80;;;;;;5074295;28;20047;-80
2021/04/24 12:30:28;;;;;;;4.70;2.20;;;11.40;62.80;;;;;;5055610;28;20052;-82
2021/04/24 12:33:16;;;;;;;7.35;3.10;;;11.50;61.70;;;;;;5055772;28;20071;-80
2021/04/24 12:35:53;;;;;;;6.35;2.20;;;11.70;60.10;;;;;;5071684;28;20055;-80
2021/04/24 12:38:24;;;;;;;7.45;2.10;;;11.90;57.20;;;;;;5071983;28;20470;-80
2021/04/24 12:40:57;;;;;;;7.18;2.40;;;12.00;58.90;;;;;;5089355;28;20115;-80
2021/04/24 12:43:30;;;;;;;8.27;2.38;;;12.10;58.30;;;;;;5089238;28;20036;-81
2021/04/24 12:46:01;;;;;;;5.32;2.55;;;12.20;57.70;;;;;;5073380;28;20094;-79
2021/04/24 12:48:48;;;;;;;7.85;3.30;;;12.30;57.40;;;;;;5072968;28;20029;-80
2021/04/24 12:51:19;;;;;;;5.70;2.13;;;12.50;56.30;;;;;;5074533;28;20040;-80
2021/04/24 12:53:48;;;;;;;4.93;1.90;;;12.50;56.30;;;;;;5092835;28;20041;-80
2021/04/24 12:56:20;;;;;;;4.10;2.13;;;12.50;57.40;;;;;;5070737;28;20075;-79
2021/04/24 12:58:50;;;;;;;4.90;2.08;;;12.60;55.20;;;;;;5073999;28;20047;-80
2021/04/24 13:01:30;;;;;;;5.97;2.10;;;12.60;54.50;;;;;;5075844;28;20036;-81